createdAt,value
2022-11-27T00:01:10.927Z,15.77
2022-11-27T00:04:13.955Z,15.57
2022-11-27T00:07:16.783Z,19.83
2022-11-27T00:10:19.742Z,10.53
2022-11-27T00:13:23.930Z,9.90
2022-11-27T00:16:27.720Z,10.23
2022-11-27T00:19:30.539Z,10.30
2022-11-27T00:22:33.294Z,10.10
2022-11-27T00:25:36.029Z,9.77
2022-11-27T00:28:40.246Z,9.30
2022-11-27T00:31:43.049Z,9.87
2022-11-27T00:34:45.884Z,9.87
2022-11-27T00:37:48.647Z,10.43
2022-11-27T00:40:51.373Z,10.27
2022-11-27T00:43:56.437Z,10.53
2022-11-27T00:46:59.202Z,12.47
2022-11-27T00:50:01.991Z,11.87
2022-11-27T00:53:04.736Z,13.13
2022-11-27T00:56:08.095Z,11.57
2022-11-27T00:59:12.653Z,11.37
2022-11-27T01:02:15.459Z,11.70
2022-11-27T01:05:18.294Z,10.37
2022-11-27T01:08:21.269Z,9.33
2022-11-27T01:11:26.642Z,9.30
2022-11-27T01:14:30.843Z,10.20
2022-11-27T01:17:33.724Z,8.83
2022-11-27T01:20:39.362Z,7.57
2022-11-27T01:23:42.312Z,7.80
2022-11-27T01:26:46.065Z,7.50
2022-11-27T01:29:50.137Z,7.60
2022-11-27T01:32:52.971Z,7.70
2022-11-27T01:35:57.303Z,6.47
2022-11-27T01:39:01.114Z,6.43
2022-11-27T01:42:04.374Z,6.27
2022-11-27T01:45:11.958Z,5.90
2022-11-27T01:48:15.579Z,6.07
2022-11-27T01:51:19.515Z,6.00
2022-11-27T01:54:23.987Z,6.83
2022-11-27T01:57:29.795Z,5.60
2022-11-27T02:00:34.327Z,5.33
2022-11-27T02:03:37.287Z,5.57
2022-11-27T02:06:40.311Z,5.20
2022-11-27T02:09:43.275Z,5.90
2022-11-27T02:12:54.404Z,5.33
2022-11-27T02:16:15.069Z,5.37
2022-11-27T02:19:34.356Z,5.47
2022-11-27T02:22:51.466Z,6.37
2022-11-27T02:26:10.756Z,5.53
2022-11-27T02:29:16.593Z,5.60
2022-11-27T02:32:24.578Z,5.50
2022-11-27T02:35:30.828Z,4.80
2022-11-27T02:38:39.292Z,5.30
2022-11-27T02:41:49.570Z,5.80
2022-11-27T02:44:59.541Z,5.50
2022-11-27T02:48:02.386Z,4.77
2022-11-27T02:51:07.532Z,5.33
2022-11-27T02:54:14.826Z,5.83
2022-11-27T02:57:19.887Z,5.00
2022-11-27T03:00:25.126Z,5.37
2022-11-27T03:03:32.840Z,4.70
2022-11-27T03:06:40.496Z,5.50
2022-11-27T03:09:47.385Z,5.53
2022-11-27T03:12:50.708Z,4.87
2022-11-27T03:16:09.899Z,5.17
2022-11-27T03:19:18.600Z,5.53
2022-11-27T03:22:21.489Z,4.67
2022-11-27T03:25:24.931Z,5.30
2022-11-27T03:28:29.673Z,5.67
2022-11-27T03:31:34.278Z,6.00
2022-11-27T03:34:37.763Z,6.17
2022-11-27T03:37:40.778Z,6.07
2022-11-27T03:40:50.757Z,5.80
2022-11-27T03:44:06.777Z,5.20
2022-11-27T03:47:19.149Z,5.57
2022-11-27T03:50:33.117Z,5.50
2022-11-27T03:53:48.440Z,5.27
2022-11-27T03:56:57.744Z,5.67
2022-11-27T04:00:04.926Z,4.50
2022-11-27T04:03:11.143Z,5.13
2022-11-27T04:06:13.915Z,5.27
2022-11-27T04:09:17.005Z,5.30
2022-11-27T04:12:19.705Z,5.10
2022-11-27T04:15:22.579Z,5.23
2022-11-27T04:18:26.627Z,4.80
2022-11-27T04:21:29.352Z,5.27
2022-11-27T04:24:32.049Z,5.50
2022-11-27T04:27:34.816Z,4.80
2022-11-27T04:30:37.818Z,5.50
2022-11-27T04:33:42.527Z,5.03
2022-11-27T04:36:46.582Z,5.27
2022-11-27T04:39:49.233Z,5.43
2022-11-27T04:42:52.160Z,5.50
2022-11-27T04:45:54.891Z,5.63
2022-11-27T04:48:59.087Z,5.90
2022-11-27T04:52:02.023Z,5.20
2022-11-27T04:55:05.338Z,5.20
2022-11-27T04:58:08.095Z,6.00
2022-11-27T05:01:10.929Z,5.53
2022-11-27T05:04:15.052Z,5.87
2022-11-27T05:07:17.771Z,4.97
2022-11-27T05:10:20.467Z,5.70
2022-11-27T05:13:23.185Z,5.60
2022-11-27T05:16:25.963Z,5.60
2022-11-27T05:19:31.707Z,5.97
2022-11-27T05:22:34.481Z,5.20
2022-11-27T05:25:37.347Z,5.83
2022-11-27T05:28:40.058Z,5.47
2022-11-27T05:31:44.285Z,6.03
2022-11-27T05:34:49.634Z,5.27
2022-11-27T05:37:52.366Z,5.83
2022-11-27T05:40:55.087Z,6.53
2022-11-27T05:43:57.809Z,5.43
2022-11-27T05:47:00.561Z,5.53
2022-11-27T05:50:05.467Z,6.70
2022-11-27T05:53:08.481Z,6.20
2022-11-27T05:56:14.455Z,6.07
2022-11-27T05:59:17.154Z,5.63
2022-11-27T06:02:22.695Z,6.07
2022-11-27T06:05:30.505Z,6.10
2022-11-27T06:08:33.278Z,5.23
2022-11-27T06:11:35.981Z,5.70
2022-11-27T06:14:39.023Z,6.20
2022-11-27T06:17:42.081Z,5.77
2022-11-27T06:20:52.747Z,6.47
2022-11-27T06:23:56.995Z,5.97
2022-11-27T06:26:59.734Z,6.63
2022-11-27T06:30:03.153Z,6.00
2022-11-27T06:33:05.885Z,6.30
2022-11-27T06:36:11.026Z,6.17
2022-11-27T06:39:13.789Z,6.10
2022-11-27T06:42:16.622Z,6.27
2022-11-27T06:45:19.307Z,6.53
2022-11-27T06:48:22.013Z,6.03
2022-11-27T06:51:27.800Z,6.60
2022-11-27T06:54:30.528Z,9.73
2022-11-27T06:57:33.212Z,6.63
2022-11-27T07:00:36.048Z,7.17
2022-11-27T07:03:38.859Z,6.10
2022-11-27T07:06:43.630Z,6.30
2022-11-27T07:09:46.507Z,6.57
2022-11-27T07:12:49.353Z,7.20
2022-11-27T07:15:52.080Z,6.40
2022-11-27T07:18:56.027Z,6.60
2022-11-27T07:22:00.070Z,6.47
2022-11-27T07:25:04.254Z,6.30
2022-11-27T07:28:06.933Z,6.53
2022-11-27T07:31:09.833Z,5.73
2022-11-27T07:34:17.076Z,5.57
2022-11-27T07:37:25.220Z,6.23
2022-11-27T07:40:28.078Z,7.10
2022-11-27T07:43:31.573Z,8.37
2022-11-27T07:46:34.349Z,7.43
2022-11-27T07:49:37.045Z,7.20
2022-11-27T07:52:42.298Z,6.70
2022-11-27T07:55:45.163Z,6.00
2022-11-27T07:58:48.531Z,6.30
2022-11-27T08:01:51.317Z,6.20
2022-11-27T08:04:54.122Z,5.83
2022-11-27T08:08:00.825Z,6.20
2022-11-27T08:11:03.613Z,6.57
2022-11-27T08:14:08.215Z,7.33
2022-11-27T08:17:13.780Z,7.10
2022-11-27T08:20:16.601Z,7.60
2022-11-27T08:23:20.622Z,7.60
2022-11-27T08:26:23.321Z,7.07
2022-11-27T08:29:31.158Z,7.50
2022-11-27T08:32:40.085Z,8.33
2022-11-27T08:35:49.199Z,6.90
2022-11-27T08:38:53.401Z,6.83
2022-11-27T08:41:56.245Z,6.80
2022-11-27T08:44:58.936Z,8.30
2022-11-27T08:48:01.947Z,7.10
2022-11-27T08:51:08.082Z,6.63
2022-11-27T08:54:12.769Z,7.60
2022-11-27T08:57:15.547Z,6.30
2022-11-27T09:00:22.425Z,5.13
2022-11-27T09:03:27.769Z,6.43
2022-11-27T09:06:33.204Z,6.83
2022-11-27T09:09:37.406Z,5.63
2022-11-27T09:12:43.381Z,6.90
2022-11-27T09:15:46.401Z,8.67
2022-11-27T09:18:51.535Z,6.33
2022-11-27T09:21:54.339Z,6.90
2022-11-27T09:24:58.403Z,6.73
2022-11-27T09:28:02.213Z,6.10
2022-11-27T09:31:07.789Z,7.53
2022-11-27T09:34:10.517Z,7.07
2022-11-27T09:37:13.317Z,6.00
2022-11-27T09:40:18.746Z,7.00
2022-11-27T09:43:29.477Z,6.47
2022-11-27T09:46:38.145Z,7.30
2022-11-27T09:49:44.393Z,8.63
2022-11-27T09:52:52.142Z,7.73
2022-11-27T09:55:59.644Z,8.90
2022-11-27T09:59:03.818Z,6.90
2022-11-27T10:02:16.609Z,6.10
2022-11-27T10:05:23.799Z,7.50
2022-11-27T10:08:37.459Z,6.47
2022-11-27T10:11:53.757Z,5.53
2022-11-27T10:15:05.780Z,8.63
2022-11-27T10:18:15.808Z,7.13
2022-11-27T10:21:28.437Z,9.63
2022-11-27T10:24:38.965Z,5.33
2022-11-27T10:27:49.259Z,6.93
2022-11-27T10:30:56.818Z,7.83
2022-11-27T10:34:03.725Z,10.87
2022-11-27T10:37:13.646Z,8.87
2022-11-27T10:40:24.363Z,17.87
2022-11-27T10:43:28.472Z,10.17
2022-11-27T10:46:37.205Z,9.97
2022-11-27T10:49:41.931Z,8.40
2022-11-27T10:52:52.500Z,8.70
2022-11-27T10:56:16.005Z,5.83
2022-11-27T10:59:27.670Z,7.37
2022-11-27T11:02:34.384Z,7.77
2022-11-27T11:05:57.372Z,9.13
2022-11-27T11:09:05.937Z,5.73
2022-11-27T11:12:09.613Z,11.60
2022-11-27T11:15:14.869Z,11.70
2022-11-27T11:18:18.720Z,8.77
2022-11-27T11:21:27.661Z,7.63
2022-11-27T11:24:32.057Z,6.33
2022-11-27T11:27:34.996Z,8.50
2022-11-27T11:30:39.638Z,9.70
2022-11-27T11:33:53.028Z,8.13
2022-11-27T11:37:02.035Z,8.43
2022-11-27T11:40:14.652Z,4.40
2022-11-27T11:43:26.909Z,6.80
2022-11-27T11:46:33.767Z,8.23
2022-11-27T11:49:37.198Z,5.60
2022-11-27T11:52:53.629Z,7.47
2022-11-27T11:56:06.886Z,10.13
2022-11-27T11:59:18.462Z,5.40
2022-11-27T12:02:41.341Z,7.20
2022-11-27T12:05:58.629Z,7.30
2022-11-27T12:09:17.102Z,9.70
2022-11-27T12:12:36.562Z,8.20
2022-11-27T12:15:45.750Z,8.70
2022-11-27T12:19:03.826Z,7.80
2022-11-27T12:22:19.683Z,9.33
2022-11-27T12:25:33.485Z,7.83
2022-11-27T12:28:58.849Z,5.67
2022-11-27T12:32:28.233Z,7.00
2022-11-27T12:35:39.632Z,4.00
2022-11-27T12:38:58.295Z,5.50
2022-11-27T12:42:12.493Z,8.77
2022-11-27T12:45:19.952Z,8.63
2022-11-27T12:48:28.094Z,8.10
2022-11-27T12:51:37.286Z,6.53
2022-11-27T12:54:47.480Z,8.37
2022-11-27T12:57:54.964Z,9.13
2022-11-27T13:01:03.317Z,8.47
2022-11-27T13:04:19.122Z,7.27
2022-11-27T13:07:27.932Z,8.30
2022-11-27T13:10:36.947Z,7.67
2022-11-27T13:13:44.301Z,10.13
2022-11-27T13:16:51.308Z,9.20
2022-11-27T13:19:54.420Z,8.60
2022-11-27T13:22:58.590Z,10.13
2022-11-27T13:26:05.945Z,10.07
2022-11-27T13:29:16.667Z,10.03
2022-11-27T13:32:22.703Z,12.47
2022-11-27T13:35:30.464Z,19.83
2022-11-27T13:38:37.467Z,9.73
2022-11-27T13:41:43.729Z,10.37
2022-11-27T13:44:55.806Z,12.70
2022-11-27T13:48:02.160Z,9.63
2022-11-27T13:51:06.945Z,10.17
2022-11-27T13:54:13.997Z,9.47
2022-11-27T13:57:18.701Z,9.27
2022-11-27T14:00:32.775Z,10.70
2022-11-27T14:03:36.551Z,11.87
2022-11-27T14:06:39.822Z,12.30
2022-11-27T14:09:48.131Z,10.10
2022-11-27T14:12:54.974Z,11.90
2022-11-27T14:16:04.800Z,11.50
2022-11-27T14:19:28.220Z,10.93
2022-11-27T14:23:07.233Z,12.83
2022-11-27T14:26:19.986Z,10.80
2022-11-27T14:29:23.871Z,11.97
2022-11-27T14:32:36.517Z,11.57
2022-11-27T14:35:41.789Z,12.93
2022-11-27T14:38:48.870Z,13.00
2022-11-27T14:42:00.055Z,10.93
2022-11-27T14:45:05.537Z,9.43
2022-11-27T14:48:08.266Z,7.20
2022-11-27T14:51:17.270Z,10.73
2022-11-27T14:54:25.543Z,12.83
2022-11-27T14:57:31.424Z,11.97
2022-11-27T15:00:34.168Z,13.60
2022-11-27T15:03:37.075Z,16.97
2022-11-27T15:06:42.906Z,13.60
2022-11-27T15:09:48.414Z,14.73
2022-11-27T15:12:52.996Z,14.83
2022-11-27T15:16:01.877Z,17.30
2022-11-27T15:19:07.100Z,14.13
2022-11-27T15:22:17.773Z,15.57
2022-11-27T15:25:36.389Z,14.20
2022-11-27T15:28:41.938Z,15.00
2022-11-27T15:31:52.001Z,14.03
2022-11-27T15:34:55.378Z,15.40
2022-11-27T15:38:04.206Z,16.43
2022-11-27T15:41:06.955Z,14.93
2022-11-27T15:44:11.225Z,11.20
2022-11-27T15:47:23.453Z,12.67
2022-11-27T15:50:26.358Z,14.17
2022-11-27T15:53:29.118Z,13.53
2022-11-27T15:56:31.788Z,11.30
2022-11-27T15:59:35.892Z,10.07
2022-11-27T16:02:38.770Z,12.73
2022-11-27T16:05:41.606Z,30.30
2022-11-27T16:08:44.413Z,15.30
2022-11-27T16:11:47.299Z,17.10
2022-11-27T16:14:51.535Z,21.97
2022-11-27T16:17:54.295Z,13.87
2022-11-27T16:20:57.003Z,13.50
2022-11-27T16:24:00.500Z,12.20
2022-11-27T16:27:03.528Z,11.43
2022-11-27T16:30:09.247Z,11.50
2022-11-27T16:33:11.882Z,7.67
2022-11-27T16:36:17.002Z,7.83
2022-11-27T16:39:19.842Z,13.77
2022-11-27T16:42:22.614Z,15.40
2022-11-27T16:45:26.691Z,14.53
2022-11-27T16:48:29.439Z,17.13
2022-11-27T16:51:33.455Z,9.00
2022-11-27T16:54:36.265Z,15.37
2022-11-27T16:57:39.436Z,10.07
2022-11-27T17:00:43.575Z,7.77
2022-11-27T17:03:46.380Z,12.80
2022-11-27T17:06:50.501Z,11.33
2022-11-27T17:09:53.217Z,7.33
2022-11-27T17:12:55.963Z,9.93
2022-11-27T17:16:03.037Z,37.13
2022-11-27T17:19:05.863Z,15.47
2022-11-27T17:22:08.793Z,15.63
2022-11-27T17:25:11.523Z,10.47
2022-11-27T17:28:14.218Z,13.03
2022-11-27T17:31:20.296Z,11.70
2022-11-27T17:34:23.077Z,10.17
2022-11-27T17:37:25.793Z,12.53
2022-11-27T17:40:30.605Z,5.53
2022-11-27T17:43:33.379Z,6.87
2022-11-27T17:46:39.949Z,10.83
2022-11-27T17:49:42.835Z,10.47
2022-11-27T17:52:45.837Z,10.03
2022-11-27T17:55:48.729Z,10.57
2022-11-27T17:58:51.402Z,9.87
2022-11-27T18:01:55.608Z,15.27
2022-11-27T18:04:58.319Z,11.93
2022-11-27T18:08:01.115Z,10.70
2022-11-27T18:11:06.126Z,11.27
2022-11-27T18:14:08.822Z,11.17
2022-11-27T18:17:17.069Z,21.97
2022-11-27T18:20:19.915Z,12.00
2022-11-27T18:23:23.081Z,13.00
2022-11-27T18:26:45.408Z,14.67
2022-11-27T18:29:50.004Z,13.30
2022-11-27T18:32:54.070Z,11.53
2022-11-27T18:35:56.748Z,10.70
2022-11-27T18:38:59.918Z,5.70
2022-11-27T18:42:05.686Z,7.83
2022-11-27T18:45:31.347Z,11.00
2022-11-27T18:48:34.757Z,12.23
2022-11-27T18:51:37.644Z,10.60
2022-11-27T18:54:40.444Z,10.87
2022-11-27T18:57:43.683Z,12.13
2022-11-27T19:00:46.426Z,11.67
2022-11-27T19:03:50.999Z,11.80
2022-11-27T19:06:53.707Z,15.70
2022-11-27T19:09:56.587Z,7.53
2022-11-27T19:12:59.305Z,8.27
2022-11-27T19:16:06.146Z,9.13
2022-11-27T19:19:49.295Z,10.00
2022-11-27T19:22:33.483Z,9.67
2022-11-27T19:25:38.629Z,11.00
2022-11-27T19:28:41.806Z,9.13
2022-11-27T19:31:44.594Z,10.70
2022-11-27T19:34:50.510Z,6.83
2022-11-27T19:37:53.716Z,9.17
2022-11-27T19:40:56.635Z,9.53
2022-11-27T19:44:01.114Z,11.10
2022-11-27T19:47:04.163Z,10.93
2022-11-27T19:50:09.217Z,7.80
2022-11-27T19:53:12.268Z,7.87
2022-11-27T19:56:15.011Z,11.47
2022-11-27T19:59:21.528Z,9.87
2022-11-27T20:02:30.055Z,9.00
2022-11-27T20:05:34.306Z,10.10
2022-11-27T20:08:37.089Z,9.83
2022-11-27T20:11:39.817Z,10.23
2022-11-27T20:14:42.832Z,11.03
2022-11-27T20:17:45.838Z,8.53
2022-11-27T20:20:50.230Z,4.87
2022-11-27T20:23:54.840Z,6.97
2022-11-27T20:26:57.628Z,6.17
2022-11-27T20:30:01.005Z,7.30
2022-11-27T20:33:07.552Z,5.80
2022-11-27T20:36:16.527Z,7.27
2022-11-27T20:39:21.912Z,9.67
2022-11-27T20:42:24.826Z,8.93
2022-11-27T20:45:28.193Z,16.30
2022-11-27T20:48:31.546Z,8.27
2022-11-27T20:51:35.816Z,9.63
2022-11-27T20:54:38.587Z,9.50
2022-11-27T20:57:41.845Z,9.63
2022-11-27T21:00:44.858Z,10.37
2022-11-27T21:03:49.677Z,5.93
2022-11-27T21:06:53.967Z,10.40
2022-11-27T21:09:56.922Z,6.27
2022-11-27T21:12:59.664Z,5.43
2022-11-27T21:16:02.550Z,12.10
2022-11-27T21:19:07.690Z,9.77
2022-11-27T21:22:11.742Z,9.77
2022-11-27T21:25:14.507Z,8.77
2022-11-27T21:28:17.527Z,8.93
2022-11-27T21:31:22.272Z,9.87
2022-11-27T21:34:26.190Z,5.13
2022-11-27T21:37:30.269Z,5.60
2022-11-27T21:40:33.244Z,9.93
2022-11-27T21:43:36.926Z,9.10
2022-11-27T21:46:39.918Z,9.70
2022-11-27T21:49:43.980Z,4.03
2022-11-27T21:52:48.140Z,8.47
2022-11-27T21:55:50.826Z,7.73
2022-11-27T21:58:53.869Z,7.63
2022-11-27T22:01:57.284Z,9.60
2022-11-27T22:05:00.314Z,8.57
2022-11-27T22:08:05.386Z,7.03
2022-11-27T22:11:09.180Z,5.80
2022-11-27T22:14:11.974Z,2.80
2022-11-27T22:17:14.822Z,6.97
2022-11-27T22:20:17.860Z,8.70
2022-11-27T22:23:22.065Z,9.00
2022-11-27T22:26:25.672Z,9.57
2022-11-27T22:29:28.594Z,9.83
2022-11-27T22:32:31.261Z,8.43
2022-11-27T22:35:33.975Z,8.90
2022-11-27T22:38:38.029Z,7.80
2022-11-27T22:41:41.897Z,9.10
2022-11-27T22:44:44.950Z,8.27
2022-11-27T22:47:47.781Z,9.10
2022-11-27T22:50:56.679Z,9.47
2022-11-27T22:54:01.947Z,9.27
2022-11-27T22:57:04.780Z,9.10
2022-11-27T23:00:09.839Z,8.43
2022-11-27T23:03:12.541Z,8.87
2022-11-27T23:06:17.216Z,8.07
2022-11-27T23:09:21.231Z,7.63
2022-11-27T23:12:23.883Z,8.17
2022-11-27T23:15:26.571Z,8.40
2022-11-27T23:18:29.285Z,8.83
2022-11-27T23:21:35.221Z,8.13
2022-11-27T23:24:39.594Z,6.73
2022-11-27T23:27:43.940Z,5.07
2022-11-27T23:30:46.675Z,4.30
2022-11-27T23:33:49.596Z,8.17
2022-11-27T23:36:52.390Z,6.40
2022-11-27T23:39:56.476Z,8.60
2022-11-27T23:42:59.249Z,3.67
2022-11-27T23:46:03.613Z,2.90
2022-11-27T23:49:06.453Z,3.80
2022-11-27T23:52:14.296Z,3.83
2022-11-27T23:55:20.985Z,8.73
2022-11-27T23:58:23.760Z,6.80
